createdAt,value
2022-09-20T00:01:41.249Z,100401.06
2022-09-20T00:04:10.656Z,100395.75
2022-09-20T00:06:39.203Z,100397.38
2022-09-20T00:09:07.255Z,100395.56
2022-09-20T00:11:36.891Z,100402.56
2022-09-20T00:14:08.860Z,100408.53
2022-09-20T00:16:41.377Z,100404.38
2022-09-20T00:19:10.597Z,100409.38
2022-09-20T00:21:38.611Z,100395.56
2022-09-20T00:24:07.264Z,100407.38
2022-09-20T00:26:36.469Z,100415.88
2022-09-20T00:29:05.676Z,100413.19
2022-09-20T00:31:33.942Z,100420.38
2022-09-20T00:34:19.153Z,100412.72
2022-09-20T00:36:48.012Z,100412.38
2022-09-20T00:39:17.734Z,100420.72
2022-09-20T00:41:46.378Z,100421.50
2022-09-20T00:44:43.419Z,100420.53
2022-09-20T00:47:23.864Z,100415.53
2022-09-20T00:49:56.562Z,100427.19
2022-09-20T00:52:25.539Z,100424.03
2022-09-20T00:54:54.288Z,100421.38
2022-09-20T00:57:22.728Z,100424.72
2022-09-20T00:59:53.642Z,100429.88
2022-09-20T01:02:29.584Z,100428.22
2022-09-20T01:04:58.939Z,100440.19
2022-09-20T01:07:28.133Z,100432.19
2022-09-20T01:09:56.652Z,100431.19
2022-09-20T01:12:28.788Z,100431.38
2022-09-20T01:14:57.744Z,100436.22
2022-09-20T01:17:33.301Z,100424.38
2022-09-20T01:20:24.138Z,100419.03
2022-09-20T01:23:15.346Z,100428.22
2022-09-20T01:26:02.269Z,100430.41
2022-09-20T01:28:31.502Z,100428.72
2022-09-20T01:31:21.441Z,100425.22
2022-09-20T01:34:14.608Z,100426.56
2022-09-20T01:37:50.887Z,100425.75
2022-09-20T01:40:43.106Z,100438.59
2022-09-20T01:43:56.381Z,100431.44
2022-09-20T01:46:38.209Z,100429.25
2022-09-20T01:49:30.783Z,100432.09
2022-09-20T01:52:33.439Z,100436.25
2022-09-20T01:55:39.411Z,100430.75
2022-09-20T01:59:22.758Z,100438.94
2022-09-20T02:02:07.917Z,100436.25
2022-09-20T02:04:54.085Z,100450.25
2022-09-20T02:07:40.462Z,100443.25
2022-09-20T02:10:36.190Z,100443.09
2022-09-20T02:13:35.051Z,100436.91
2022-09-20T02:16:22.364Z,100444.25
2022-09-20T02:19:10.974Z,100447.91
2022-09-20T02:21:48.528Z,100445.41
2022-09-20T02:24:37.894Z,100447.41
2022-09-20T02:27:21.164Z,100451.91
2022-09-20T02:29:52.447Z,100452.75
2022-09-20T02:32:45.193Z,100448.06
2022-09-20T02:35:37.147Z,100455.41
2022-09-20T02:38:24.615Z,100457.09
2022-09-20T02:41:01.914Z,100452.59
2022-09-20T02:43:54.159Z,100450.75
2022-09-20T02:46:40.177Z,100452.25
2022-09-20T02:49:42.022Z,100451.22
2022-09-20T02:52:33.687Z,100449.59
2022-09-20T02:55:28.952Z,100452.06
2022-09-20T02:58:30.063Z,100454.72
2022-09-20T03:01:23.126Z,100456.56
2022-09-20T03:04:16.055Z,100459.41
2022-09-20T03:07:05.300Z,100460.56
2022-09-20T03:09:48.915Z,100461.38
2022-09-20T03:12:41.697Z,100465.06
2022-09-20T03:15:28.649Z,100468.06
2022-09-20T03:18:09.615Z,100475.41
2022-09-20T03:20:59.812Z,100458.56
2022-09-20T03:24:16.925Z,100470.91
2022-09-20T03:27:09.106Z,100463.06
2022-09-20T03:29:49.356Z,100469.38
2022-09-20T03:32:47.548Z,100466.41
2022-09-20T03:35:38.479Z,100463.25
2022-09-20T03:38:24.494Z,100476.91
2022-09-20T03:41:25.134Z,100472.41
2022-09-20T03:44:00.507Z,100473.75
2022-09-20T03:46:48.757Z,100474.56
2022-09-20T03:49:48.130Z,100471.91
2022-09-20T03:52:16.005Z,100473.06
2022-09-20T03:55:34.887Z,100468.94
2022-09-20T03:58:22.110Z,100464.78
2022-09-20T04:01:26.871Z,100477.25
2022-09-20T04:04:08.446Z,100470.44
2022-09-20T04:07:02.391Z,100475.44
2022-09-20T04:09:49.299Z,100477.25
2022-09-20T04:12:51.063Z,100476.28
2022-09-20T04:15:43.272Z,100480.75
2022-09-20T04:18:39.030Z,100483.44
2022-09-20T04:21:55.200Z,100484.25
2022-09-20T04:24:51.296Z,100486.91
2022-09-20T04:27:33.373Z,100489.75
2022-09-20T04:30:29.609Z,100487.91
2022-09-20T04:33:28.503Z,100488.06
2022-09-20T04:36:29.733Z,100490.91
2022-09-20T04:39:18.318Z,100487.56
2022-09-20T04:42:30.294Z,100507.75
2022-09-20T04:45:37.317Z,100501.72
2022-09-20T04:48:26.344Z,100503.25
2022-09-20T04:51:37.746Z,100512.72
2022-09-20T04:54:48.911Z,100509.03
2022-09-20T04:58:00.481Z,100514.22
2022-09-20T05:01:17.013Z,100509.38
2022-09-20T05:04:15.915Z,100507.56
2022-09-20T05:07:42.141Z,100515.06
2022-09-20T05:10:27.987Z,100510.38
2022-09-20T05:13:17.151Z,100523.19
2022-09-20T05:16:47.256Z,100521.72
2022-09-20T05:19:15.197Z,100525.03
2022-09-20T05:22:17.496Z,100529.88
2022-09-20T05:24:53.836Z,100523.88
2022-09-20T05:28:15.951Z,100529.19
2022-09-20T05:30:50.192Z,100539.84
2022-09-20T05:33:50.270Z,100533.69
2022-09-20T05:36:48.813Z,100534.84
2022-09-20T05:39:38.411Z,100533.53
2022-09-20T05:42:32.843Z,100547.34
2022-09-20T05:45:34.625Z,100544.16
2022-09-20T05:48:32.201Z,100550.84
2022-09-20T05:51:32.357Z,100554.00
2022-09-20T05:54:27.003Z,100549.16
2022-09-20T05:57:19.426Z,100553.50
2022-09-20T06:00:08.803Z,100556.66
2022-09-20T06:02:56.086Z,100554.16
2022-09-20T06:05:51.812Z,100552.13
2022-09-20T06:08:39.320Z,100562.81
2022-09-20T06:12:17.947Z,100559.84
2022-09-20T06:15:22.181Z,100564.31
2022-09-20T06:18:06.967Z,100560.47
2022-09-20T06:20:45.882Z,100562.81
2022-09-20T06:23:15.140Z,100563.81
2022-09-20T06:25:47.792Z,100568.28
2022-09-20T06:28:22.630Z,100573.13
2022-09-20T06:30:57.387Z,100559.81
2022-09-20T06:33:30.021Z,100567.78
2022-09-20T06:36:38.186Z,100577.44
2022-09-20T06:39:46.930Z,100573.59
2022-09-20T06:42:14.951Z,100571.75
2022-09-20T06:44:43.426Z,100581.59
2022-09-20T06:47:18.822Z,100578.44
2022-09-20T06:49:50.190Z,100584.25
2022-09-20T06:52:21.047Z,100582.94
2022-09-20T06:54:54.234Z,100584.22
2022-09-20T06:57:37.925Z,100580.91
2022-09-20T07:00:11.153Z,100586.38
2022-09-20T07:02:40.147Z,100587.38
2022-09-20T07:05:11.349Z,100589.53
2022-09-20T07:07:39.722Z,100588.16
2022-09-20T07:10:07.895Z,100595.16
2022-09-20T07:12:35.931Z,100590.66
2022-09-20T07:15:04.221Z,100598.47
2022-09-20T07:17:33.666Z,100605.13
2022-09-20T07:20:02.264Z,100612.97
2022-09-20T07:22:30.847Z,100607.66
2022-09-20T07:25:02.531Z,100605.81
2022-09-20T07:27:31.267Z,100609.13
2022-09-20T07:29:59.666Z,100606.25
2022-09-20T07:32:27.780Z,100609.63
2022-09-20T07:34:56.119Z,100612.78
2022-09-20T07:37:24.735Z,100616.09
2022-09-20T07:39:53.227Z,100618.59
2022-09-20T07:42:21.759Z,100619.09
2022-09-20T07:44:51.254Z,100634.56
2022-09-20T07:47:19.235Z,100625.38
2022-09-20T07:49:47.754Z,100634.53
2022-09-20T07:52:16.229Z,100634.84
2022-09-20T07:54:48.618Z,100635.47
2022-09-20T07:57:17.542Z,100639.47
2022-09-20T07:59:45.922Z,100638.97
2022-09-20T08:02:18.067Z,100648.09
2022-09-20T08:04:47.259Z,100642.59
2022-09-20T08:07:15.797Z,100651.91
2022-09-20T08:09:44.120Z,100649.06
2022-09-20T08:15:02.826Z,100646.81
2022-09-20T08:17:31.181Z,100644.00
2022-09-20T08:20:00.548Z,100649.25
2022-09-20T08:22:28.882Z,100653.22
2022-09-20T08:24:57.267Z,100654.16
2022-09-20T08:27:25.471Z,100658.97
2022-09-20T08:29:55.551Z,100658.31
2022-09-20T08:32:24.614Z,100662.72
2022-09-20T08:34:52.767Z,100661.41
2022-09-20T08:37:21.426Z,100666.75
2022-09-20T08:39:58.208Z,100664.19
2022-09-20T08:42:42.029Z,100663.66
2022-09-20T08:45:33.574Z,100657.75
2022-09-20T08:48:05.686Z,100655.09
2022-09-20T08:50:34.999Z,100667.41
2022-09-20T08:53:05.141Z,100671.53
2022-09-20T08:55:37.381Z,100672.81
2022-09-20T08:58:08.738Z,100681.97
2022-09-20T09:00:39.292Z,100681.72
2022-09-20T09:03:19.426Z,100678.63
2022-09-20T09:05:51.957Z,100681.88
2022-09-20T09:08:37.626Z,100674.94
2022-09-20T09:11:12.132Z,100689.06
2022-09-20T09:14:04.699Z,100681.41
2022-09-20T09:16:36.553Z,100692.38
2022-09-20T09:19:33.648Z,100697.88
2022-09-20T09:22:06.186Z,100694.09
2022-09-20T09:24:34.572Z,100693.97
2022-09-20T09:27:19.290Z,100708.31
2022-09-20T09:29:56.875Z,100689.84
2022-09-20T09:32:35.234Z,100695.16
2022-09-20T09:35:37.182Z,100698.94
2022-09-20T09:38:05.714Z,100695.81
2022-09-20T09:40:34.644Z,100700.25
2022-09-20T09:43:04.521Z,100694.25
2022-09-20T09:45:36.184Z,100694.16
2022-09-20T09:48:40.295Z,100708.53
2022-09-20T09:51:15.708Z,100703.31
2022-09-20T09:53:45.476Z,100696.59
2022-09-20T09:56:46.158Z,100700.09
2022-09-20T09:59:21.460Z,100696.41
2022-09-20T10:02:11.056Z,100701.22
2022-09-20T10:04:56.413Z,100694.84
2022-09-20T10:07:37.935Z,100696.34
2022-09-20T10:10:29.117Z,100693.94
2022-09-20T10:12:57.460Z,100690.28
2022-09-20T10:16:01.898Z,100698.34
2022-09-20T10:18:53.110Z,100693.72
2022-09-20T10:21:56.241Z,100697.66
2022-09-20T10:24:51.315Z,100697.03
2022-09-20T10:27:50.612Z,100694.78
2022-09-20T10:30:22.783Z,100689.06
2022-09-20T10:33:12.686Z,100688.81
2022-09-20T10:35:53.094Z,100691.16
2022-09-20T10:38:47.553Z,100694.09
2022-09-20T10:41:34.363Z,100685.50
2022-09-20T10:44:59.058Z,100693.53
2022-09-20T10:47:43.804Z,100688.38
2022-09-20T10:50:29.417Z,100688.00
2022-09-20T10:53:29.763Z,100686.88
2022-09-20T10:56:04.594Z,100693.16
2022-09-20T10:59:37.093Z,100702.75
2022-09-20T11:02:41.592Z,100707.75
2022-09-20T11:05:46.226Z,100710.34
2022-09-20T11:08:26.411Z,100716.06
2022-09-20T11:10:57.101Z,100708.41
2022-09-20T11:13:25.458Z,100704.78
2022-09-20T11:15:56.874Z,100706.53
2022-09-20T11:18:55.749Z,100702.59
2022-09-20T11:21:36.611Z,100696.41
2022-09-20T11:24:23.678Z,100697.22
2022-09-20T11:26:58.353Z,100684.22
2022-09-20T11:30:04.738Z,100695.13
2022-09-20T11:33:05.285Z,100704.91
2022-09-20T11:35:49.693Z,100696.03
2022-09-20T11:38:41.821Z,100699.34
2022-09-20T11:41:20.178Z,100702.03
2022-09-20T11:43:49.425Z,100694.56
2022-09-20T11:46:26.964Z,100694.66
2022-09-20T11:49:19.597Z,100694.72
2022-09-20T11:51:51.049Z,100697.34
2022-09-20T11:55:01.795Z,100694.00
2022-09-20T11:57:30.367Z,100696.19
2022-09-20T12:00:06.319Z,100683.28
2022-09-20T12:02:50.047Z,100695.94
2022-09-20T12:05:37.540Z,100686.97
2022-09-20T12:08:23.875Z,100690.75
2022-09-20T12:11:01.828Z,100691.06
2022-09-20T12:13:30.252Z,100681.06
2022-09-20T12:16:07.184Z,100677.09
2022-09-20T12:18:35.801Z,100677.09
2022-09-20T12:21:09.026Z,100679.19
2022-09-20T12:23:40.581Z,100671.63
2022-09-20T12:26:40.442Z,100676.81
2022-09-20T12:30:16.896Z,100678.38
2022-09-20T12:32:52.012Z,100685.88
2022-09-20T12:35:39.035Z,100675.16
2022-09-20T12:38:21.979Z,100674.97
2022-09-20T12:41:13.226Z,100674.31
2022-09-20T12:43:55.182Z,100680.88
2022-09-20T12:46:34.059Z,100678.94
2022-09-20T12:49:47.401Z,100681.44
2022-09-20T12:52:56.379Z,100676.72
2022-09-20T12:55:52.846Z,100668.78
2022-09-20T12:58:29.687Z,100682.44
2022-09-20T13:00:59.349Z,100672.28
2022-09-20T13:03:32.017Z,100661.72
2022-09-20T13:06:06.022Z,100667.09
2022-09-20T13:09:04.349Z,100671.97
2022-09-20T13:11:56.048Z,100671.88
2022-09-20T13:14:34.912Z,100670.25
2022-09-20T13:17:28.134Z,100672.00
2022-09-20T13:19:57.210Z,100667.78
2022-09-20T13:22:37.228Z,100668.94
2022-09-20T13:25:10.076Z,100673.78
2022-09-20T13:28:28.883Z,100673.09
2022-09-20T13:31:23.817Z,100681.28
2022-09-20T13:33:52.793Z,100672.03
2022-09-20T13:36:28.296Z,100676.56
2022-09-20T13:38:58.804Z,100675.00
2022-09-20T13:41:32.535Z,100677.81
2022-09-20T13:44:01.748Z,100674.69
2022-09-20T13:46:34.641Z,100683.69
2022-09-20T13:49:20.865Z,100685.59
2022-09-20T13:51:49.954Z,100683.25
2022-09-20T13:54:21.769Z,100687.97
2022-09-20T13:56:51.792Z,100684.56
2022-09-20T13:59:20.274Z,100695.31
2022-09-20T14:01:58.716Z,100692.72
2022-09-20T14:04:29.868Z,100692.19
2022-09-20T14:07:00.859Z,100693.72
2022-09-20T14:09:38.718Z,100687.81
2022-09-20T14:12:08.156Z,100692.72
2022-09-20T14:14:36.960Z,100686.69
2022-09-20T14:17:08.905Z,100695.56
2022-09-20T14:19:46.207Z,100705.94
2022-09-20T14:22:22.518Z,100691.06
2022-09-20T14:25:21.064Z,100696.06
2022-09-20T14:27:49.421Z,100689.66
2022-09-20T14:30:37.460Z,100697.78
2022-09-20T14:33:08.368Z,100693.25
2022-09-20T14:35:36.779Z,100699.81
2022-09-20T14:38:11.519Z,100704.19
2022-09-20T14:40:47.217Z,100707.69
2022-09-20T14:43:35.649Z,100705.00
2022-09-20T14:46:08.712Z,100713.69
2022-09-20T14:48:42.019Z,100717.28
2022-09-20T14:51:14.249Z,100722.34
2022-09-20T14:53:43.143Z,100716.16
2022-09-20T14:56:13.973Z,100719.22
2022-09-20T14:59:06.896Z,100725.78
2022-09-20T15:01:37.472Z,100720.97
2022-09-20T15:04:23.151Z,100724.66
2022-09-20T15:06:52.689Z,100723.47
2022-09-20T15:09:22.855Z,100728.38
2022-09-20T15:12:14.773Z,100731.91
2022-09-20T15:14:43.159Z,100733.06
2022-09-20T15:17:20.908Z,100730.38
2022-09-20T15:19:50.430Z,100726.25
2022-09-20T15:22:18.996Z,100732.44
2022-09-20T15:24:47.449Z,100728.28
2022-09-20T15:27:16.019Z,100725.78
2022-09-20T15:29:44.514Z,100724.94
2022-09-20T15:48:40.755Z,100728.75
2022-09-20T15:51:11.719Z,100721.72
2022-09-20T15:53:56.767Z,100724.41
2022-09-20T15:56:28.605Z,100727.81
2022-09-20T15:59:00.903Z,100736.03
2022-09-20T16:01:33.010Z,100729.81
2022-09-20T16:04:02.154Z,100738.91
2022-09-20T16:06:30.748Z,100733.34
2022-09-20T16:08:59.181Z,100738.91
2022-09-20T16:11:28.134Z,100745.28
2022-09-20T16:14:00.786Z,100746.38
2022-09-20T16:16:33.215Z,100747.56
2022-09-20T16:19:20.542Z,100743.59
2022-09-20T16:21:58.935Z,100749.31
2022-09-20T16:24:30.992Z,100753.03
2022-09-20T16:27:01.792Z,100753.56
2022-09-20T16:29:31.192Z,100758.28
2022-09-20T16:32:00.482Z,100755.97
2022-09-20T16:34:35.762Z,100767.69
2022-09-20T16:37:16.239Z,100766.59
2022-09-20T16:39:45.063Z,100765.28
2022-09-20T16:42:13.665Z,100775.31
2022-09-20T16:44:43.853Z,100781.03
2022-09-20T16:47:22.326Z,100781.41
2022-09-20T16:49:53.198Z,100783.63
2022-09-20T16:52:22.262Z,100788.06
2022-09-20T16:54:50.645Z,100794.75
2022-09-20T16:57:19.095Z,100794.19
2022-09-20T16:59:48.055Z,100804.41
2022-09-20T17:02:16.632Z,100804.28
2022-09-20T17:04:45.117Z,100807.47
2022-09-20T17:07:16.408Z,100805.50
2022-09-20T17:09:44.842Z,100806.22
2022-09-20T17:12:14.458Z,100805.09
2022-09-20T17:14:43.778Z,100811.28
2022-09-20T17:17:12.854Z,100818.53
2022-09-20T17:19:41.450Z,100815.88
2022-09-20T17:22:09.872Z,100815.75
2022-09-20T17:24:38.274Z,100822.63
2022-09-20T17:27:07.062Z,100830.34
2022-09-20T17:29:35.072Z,100827.34
2022-09-20T17:32:03.937Z,100839.38
2022-09-20T17:34:32.214Z,100839.09
2022-09-20T17:37:01.727Z,100846.78
2022-09-20T17:39:30.095Z,100839.28
2022-09-20T17:41:58.586Z,100847.81
2022-09-20T17:44:27.337Z,100844.63
2022-09-20T17:46:56.080Z,100852.34
2022-09-20T17:49:26.824Z,100851.53
2022-09-20T17:51:57.116Z,100853.03
2022-09-20T17:54:26.231Z,100859.72
2022-09-20T17:56:56.000Z,100866.41
2022-09-20T17:59:25.097Z,100864.22
2022-09-20T18:01:54.363Z,100857.72
2022-09-20T18:04:24.479Z,100865.41
2022-09-20T18:06:54.831Z,100866.75
2022-09-20T18:09:28.162Z,100875.25
2022-09-20T18:11:57.314Z,100867.72
2022-09-20T18:14:30.285Z,100877.59
2022-09-20T18:17:02.162Z,100879.59
2022-09-20T18:19:34.293Z,100880.25
2022-09-20T18:22:04.184Z,100883.09
2022-09-20T18:24:33.146Z,100880.44
2022-09-20T18:27:01.798Z,100899.59
2022-09-20T18:29:33.511Z,100902.94
2022-09-20T18:32:01.937Z,100906.13
2022-09-20T18:34:32.096Z,100909.31
2022-09-20T18:37:03.745Z,100908.97
2022-09-20T18:39:34.964Z,100917.63
2022-09-20T18:42:04.053Z,100914.97
2022-09-20T18:44:34.473Z,100911.47
2022-09-20T18:47:05.887Z,100916.28
2022-09-20T18:49:34.551Z,100918.47
2022-09-20T18:52:03.404Z,100917.97
2022-09-20T18:54:32.242Z,100914.81
2022-09-20T18:57:01.101Z,100924.78
2022-09-20T18:59:29.929Z,100920.78
2022-09-20T19:02:45.279Z,100928.97
2022-09-20T19:05:24.309Z,100929.59
2022-09-20T19:08:21.236Z,100920.91
2022-09-20T19:11:03.859Z,100936.38
2022-09-20T19:14:01.767Z,100932.56
2022-09-20T19:16:37.001Z,100936.00
2022-09-20T19:19:34.976Z,100943.69
2022-09-20T19:22:41.180Z,100943.31
2022-09-20T19:25:21.925Z,100950.97
2022-09-20T19:27:51.530Z,100942.59
2022-09-20T19:30:20.385Z,100954.28
2022-09-20T19:32:49.229Z,100958.25
2022-09-20T19:35:34.195Z,100957.75
2022-09-20T19:38:26.661Z,100963.72
2022-09-20T19:41:34.096Z,100968.31
2022-09-20T19:44:29.269Z,100967.81
2022-09-20T19:47:07.380Z,100983.28
2022-09-20T19:49:54.933Z,100968.78
2022-09-20T19:52:24.774Z,100981.44
2022-09-20T19:54:53.848Z,100984.25
2022-09-20T19:57:41.235Z,100979.25
2022-09-20T20:00:17.201Z,100975.38
2022-09-20T20:02:47.403Z,100980.38
2022-09-20T20:05:19.492Z,100981.66
2022-09-20T20:08:15.946Z,100987.97
2022-09-20T20:11:06.766Z,100988.06
2022-09-20T20:14:07.228Z,100991.50
2022-09-20T20:17:40.293Z,100996.63
2022-09-20T20:20:39.051Z,100999.44
2022-09-20T20:23:50.214Z,101003.25
2022-09-20T20:26:25.778Z,101000.38
2022-09-20T20:28:54.809Z,100991.84
2022-09-20T20:31:23.627Z,101005.16
2022-09-20T20:33:54.434Z,101011.34
2022-09-20T20:36:22.996Z,101007.31
2022-09-20T20:38:53.077Z,101010.94
2022-09-20T20:41:23.742Z,101008.81
2022-09-20T20:43:57.346Z,101016.66
2022-09-20T20:46:26.030Z,101014.97
2022-09-20T20:48:54.550Z,101016.13
2022-09-20T20:51:24.288Z,101015.97
2022-09-20T20:53:55.165Z,101021.44
2022-09-20T20:56:28.597Z,101029.44
2022-09-20T20:59:00.908Z,101025.09
2022-09-20T21:01:32.658Z,101031.56
2022-09-20T21:04:02.024Z,101032.25
2022-09-20T21:06:34.415Z,101024.97
2022-09-20T21:09:03.446Z,101032.41
2022-09-20T21:11:35.845Z,101028.75
2022-09-20T21:14:07.433Z,101034.78
2022-09-20T21:16:42.442Z,101036.13
2022-09-20T21:19:14.804Z,101023.34
2022-09-20T21:21:45.350Z,101039.19
2022-09-20T21:24:17.454Z,101036.19
2022-09-20T21:26:46.893Z,101032.38
2022-09-20T21:29:17.123Z,101032.25
2022-09-20T21:31:47.191Z,101036.56
2022-09-20T21:34:16.950Z,101043.03
2022-09-20T21:36:45.913Z,101034.22
2022-09-20T21:39:14.809Z,101040.69
2022-09-20T21:41:43.236Z,101042.50
2022-09-20T21:44:11.584Z,101045.88
2022-09-20T21:46:42.119Z,101051.56
2022-09-20T21:49:13.142Z,101044.09
2022-09-20T21:51:44.059Z,101052.47
2022-09-20T21:54:12.697Z,101045.19
2022-09-20T21:56:41.670Z,101053.00
2022-09-20T21:59:10.153Z,101047.66
2022-09-20T22:01:41.200Z,101046.53
2022-09-20T22:04:12.143Z,101049.22
2022-09-20T22:06:43.464Z,101048.69
2022-09-20T22:09:15.511Z,101051.16
2022-09-20T22:11:49.532Z,101047.53
2022-09-20T22:14:21.240Z,101048.38
2022-09-20T22:16:51.361Z,101048.38
2022-09-20T22:19:20.320Z,101056.38
2022-09-20T22:21:51.000Z,101059.56
2022-09-20T22:24:19.876Z,101067.69
2022-09-20T22:26:51.641Z,101057.88
2022-09-20T22:29:20.286Z,101066.00
2022-09-20T22:31:50.401Z,101067.84
2022-09-20T22:34:21.400Z,101069.81
2022-09-20T22:36:50.367Z,101070.13
2022-09-20T22:39:19.087Z,101065.94
2022-09-20T22:41:48.185Z,101066.94
2022-09-20T22:44:16.621Z,101063.72
2022-09-20T22:46:44.698Z,101072.03
2022-09-20T22:49:12.799Z,101071.81
2022-09-20T22:51:41.794Z,101076.75
2022-09-20T22:54:13.024Z,101073.88
2022-09-20T22:56:42.640Z,101077.44
2022-09-20T22:59:15.804Z,101077.75
2022-09-20T23:01:48.755Z,101081.34
2022-09-20T23:04:22.259Z,101077.75
2022-09-20T23:06:55.620Z,101082.34
2022-09-20T23:09:27.616Z,101087.56
2022-09-20T23:11:55.777Z,101085.16
2022-09-20T23:14:24.338Z,101093.97
2022-09-20T23:16:52.966Z,101094.81
2022-09-20T23:19:21.422Z,101088.94
2022-09-20T23:21:49.855Z,101088.94
2022-09-20T23:26:47.201Z,101091.34
2022-09-20T23:29:17.414Z,101086.34
2022-09-20T23:31:47.316Z,101089.28
2022-09-20T23:34:17.297Z,101083.44
2022-09-20T23:36:46.221Z,101081.53
2022-09-20T23:39:14.614Z,101096.97
2022-09-20T23:41:46.995Z,101086.63
2022-09-20T23:44:17.022Z,101082.69
2022-09-20T23:46:44.997Z,101084.69
2022-09-20T23:49:13.435Z,101090.88
2022-09-20T23:51:41.477Z,101093.00
2022-09-20T23:54:09.850Z,101094.44
2022-09-20T23:56:38.395Z,101091.91
2022-09-20T23:59:07.811Z,101088.41
